createdAt,value
2022-11-23T00:02:01.931Z,1.70
2022-11-23T00:06:03.867Z,1.74
2022-11-23T00:10:06.454Z,1.77
2022-11-23T00:14:08.225Z,1.65
2022-11-23T00:18:10.258Z,1.63
2022-11-23T00:22:12.054Z,1.76
2022-11-23T00:26:15.082Z,1.66
2022-11-23T00:30:17.195Z,1.69
2022-11-23T00:34:19.161Z,1.70
2022-11-23T00:38:20.869Z,1.76
2022-11-23T00:42:24.337Z,1.49
2022-11-23T00:46:28.917Z,1.63
2022-11-23T00:50:32.599Z,1.70
2022-11-23T00:54:34.452Z,1.66
2022-11-23T00:58:39.500Z,1.64
2022-11-23T01:02:41.787Z,1.57
2022-11-23T01:06:44.257Z,1.58
2022-11-23T01:10:46.046Z,1.57
2022-11-23T01:14:48.208Z,1.67
2022-11-23T01:18:58.057Z,1.49
2022-11-23T01:23:00.030Z,1.51
2022-11-23T01:27:01.937Z,1.66
2022-11-23T01:31:09.422Z,1.58
2022-11-23T01:35:11.514Z,1.55
2022-11-23T01:39:13.920Z,1.60
2022-11-23T01:43:18.571Z,1.62
2022-11-23T01:47:20.688Z,1.59
2022-11-23T01:51:32.115Z,1.51
2022-11-23T01:55:35.361Z,1.47
2022-11-23T01:59:39.178Z,1.37
2022-11-23T02:03:48.232Z,1.53
2022-11-23T02:07:51.386Z,1.29
2022-11-23T02:11:53.606Z,1.46
2022-11-23T02:15:57.717Z,1.43
2022-11-23T02:20:10.239Z,1.45
2022-11-23T02:24:23.516Z,1.55
2022-11-23T02:28:31.497Z,1.53
2022-11-23T02:32:34.765Z,1.42
2022-11-23T02:36:39.888Z,1.21
2022-11-23T02:40:41.606Z,1.25
2022-11-23T02:45:02.472Z,1.31
2022-11-23T02:49:04.114Z,1.29
2022-11-23T02:53:06.044Z,1.20
2022-11-23T02:57:08.203Z,1.36
2022-11-23T03:01:10.240Z,1.28
2022-11-23T03:05:12.919Z,1.39
2022-11-23T03:09:15.260Z,1.37
2022-11-23T03:13:17.252Z,1.31
2022-11-23T03:17:18.997Z,1.23
2022-11-23T03:21:21.309Z,1.27
2022-11-23T03:25:22.988Z,1.28
2022-11-23T03:29:28.642Z,1.36
2022-11-23T03:33:32.770Z,1.25
2022-11-23T03:37:34.887Z,1.29
2022-11-23T03:41:37.195Z,1.25
2022-11-23T03:45:39.317Z,1.20
2022-11-23T03:49:40.926Z,1.19
2022-11-23T03:53:44.684Z,1.11
2022-11-23T03:57:48.142Z,1.00
2022-11-23T04:01:50.102Z,1.10
2022-11-23T04:06:00.430Z,1.23
2022-11-23T04:10:28.560Z,1.25
2022-11-23T04:14:39.138Z,1.21
2022-11-23T04:18:41.670Z,1.25
2022-11-23T04:22:43.839Z,1.21
2022-11-23T04:26:46.728Z,1.20
2022-11-23T04:30:49.750Z,1.18
2022-11-23T04:34:52.371Z,1.24
2022-11-23T04:38:54.417Z,1.27
2022-11-23T04:43:06.565Z,1.25
2022-11-23T04:47:11.730Z,1.16
2022-11-23T04:51:13.818Z,1.11
2022-11-23T04:55:17.049Z,1.03
2022-11-23T04:59:27.082Z,0.91
2022-11-23T05:03:29.112Z,1.02
2022-11-23T05:07:31.175Z,0.92
2022-11-23T05:11:37.303Z,0.82
2022-11-23T05:15:38.938Z,0.91
2022-11-23T05:19:41.421Z,0.86
2022-11-23T05:23:43.234Z,0.88
2022-11-23T05:27:45.268Z,0.97
2022-11-23T05:31:48.179Z,1.00
2022-11-23T05:35:50.148Z,1.01
2022-11-23T05:39:54.323Z,1.03
2022-11-23T05:43:57.594Z,0.93
2022-11-23T05:48:03.038Z,0.94
2022-11-23T05:52:18.833Z,0.84
2022-11-23T05:56:22.986Z,0.98
2022-11-23T06:00:40.312Z,0.89
2022-11-23T06:04:43.750Z,0.77
2022-11-23T06:08:50.231Z,0.84
2022-11-23T06:12:53.353Z,0.87
2022-11-23T06:16:57.550Z,0.70
2022-11-23T06:21:08.360Z,0.88
2022-11-23T06:25:10.511Z,0.90
2022-11-23T06:29:19.486Z,0.89
2022-11-23T06:33:21.687Z,0.84
2022-11-23T06:37:25.731Z,0.87
2022-11-23T06:41:32.417Z,0.88
2022-11-23T06:45:36.145Z,0.94
2022-11-23T06:49:42.268Z,0.81
2022-11-23T06:53:52.834Z,0.93
2022-11-23T06:57:57.428Z,0.76
2022-11-23T07:01:59.243Z,0.80
2022-11-23T07:06:10.426Z,0.74
2022-11-23T07:10:13.630Z,0.77
2022-11-23T07:14:20.895Z,0.77
2022-11-23T07:18:26.303Z,0.93
2022-11-23T07:22:33.564Z,0.65
2022-11-23T07:26:35.231Z,0.41
2022-11-23T07:30:39.201Z,0.71
2022-11-23T07:34:41.259Z,0.76
2022-11-23T07:38:43.707Z,0.78
2022-11-23T07:42:47.638Z,0.72
2022-11-23T07:46:53.295Z,0.61
2022-11-23T07:50:55.460Z,0.80
2022-11-23T07:54:57.148Z,0.78
2022-11-23T07:58:59.236Z,0.65
2022-11-23T08:07:23.249Z,0.65
2022-11-23T08:11:25.386Z,0.72
2022-11-23T08:15:30.352Z,0.77
2022-11-23T08:19:37.586Z,0.83
2022-11-23T08:23:39.608Z,0.61
2022-11-23T08:27:41.457Z,0.55
2022-11-23T08:31:43.864Z,0.69
2022-11-23T08:35:45.710Z,0.69
2022-11-23T08:39:47.711Z,0.79
2022-11-23T08:43:51.029Z,0.79
2022-11-23T08:47:54.113Z,0.68
2022-11-23T08:51:55.850Z,0.82
2022-11-23T08:56:01.401Z,0.75
2022-11-23T09:00:05.101Z,0.69
2022-11-23T09:04:07.287Z,0.95
2022-11-23T09:08:09.080Z,0.94
2022-11-23T09:12:11.102Z,1.03
2022-11-23T09:16:12.785Z,1.02
2022-11-23T09:20:14.947Z,0.91
2022-11-23T09:24:16.972Z,1.09
2022-11-23T09:28:24.405Z,1.07
2022-11-23T09:32:26.654Z,1.03
2022-11-23T09:36:28.780Z,1.36
2022-11-23T09:40:35.962Z,1.23
2022-11-23T09:44:40.886Z,1.20
2022-11-23T09:48:48.684Z,1.24
2022-11-23T09:52:51.623Z,1.16
2022-11-23T09:57:01.401Z,1.23
2022-11-23T10:01:11.257Z,0.83
2022-11-23T10:05:22.776Z,1.08
2022-11-23T10:09:45.698Z,1.25
2022-11-23T10:14:16.087Z,1.26
2022-11-23T10:19:12.719Z,1.00
2022-11-23T10:23:26.497Z,1.22
2022-11-23T10:27:29.676Z,1.20
2022-11-23T10:31:31.733Z,1.12
2022-11-23T10:35:35.287Z,1.18
2022-11-23T10:39:37.525Z,1.36
2022-11-23T10:43:46.255Z,1.36
2022-11-23T10:47:50.068Z,1.39
2022-11-23T10:51:54.916Z,1.29
2022-11-23T10:55:59.743Z,1.21
2022-11-23T11:00:10.801Z,1.15
2022-11-23T11:04:23.139Z,1.32
2022-11-23T11:08:30.041Z,1.19
2022-11-23T11:12:35.567Z,1.32
2022-11-23T11:16:38.058Z,1.57
2022-11-23T11:20:40.029Z,1.40
2022-11-23T11:24:47.352Z,1.23
2022-11-23T11:28:51.716Z,1.20
2022-11-23T11:33:14.896Z,1.29
2022-11-23T11:37:36.774Z,0.93
2022-11-23T11:41:40.035Z,1.18
2022-11-23T11:46:34.403Z,1.13
2022-11-23T11:50:39.020Z,1.34
2022-11-23T11:55:07.885Z,1.57
2022-11-23T11:59:31.474Z,1.63
2022-11-23T12:03:42.701Z,1.66
2022-11-23T12:08:06.539Z,1.52
2022-11-23T12:12:16.271Z,1.65
2022-11-23T12:16:34.140Z,1.06
2022-11-23T12:21:18.219Z,1.36
2022-11-23T12:25:36.887Z,1.30
2022-11-23T12:29:57.529Z,1.32
2022-11-23T12:34:21.566Z,1.29
2022-11-23T12:38:30.496Z,1.24
2022-11-23T12:42:44.557Z,1.27
2022-11-23T12:46:59.085Z,1.21
2022-11-23T12:51:33.924Z,1.26
2022-11-23T12:55:56.648Z,1.01
2022-11-23T13:00:05.578Z,1.14
2022-11-23T13:04:45.413Z,1.05
2022-11-23T13:09:25.215Z,1.10
2022-11-23T13:13:48.780Z,1.05
2022-11-23T13:18:13.863Z,1.06
2022-11-23T13:22:19.944Z,1.17
2022-11-23T13:26:24.529Z,0.87
2022-11-23T13:35:03.780Z,0.82
2022-11-23T13:39:43.939Z,0.77
2022-11-23T13:43:46.546Z,0.71
2022-11-23T13:48:07.105Z,0.68
2022-11-23T13:52:20.966Z,0.71
2022-11-23T13:56:27.105Z,0.63
2022-11-23T14:00:48.728Z,0.66
2022-11-23T14:04:51.250Z,0.61
2022-11-23T14:09:04.385Z,0.48
2022-11-23T14:13:19.193Z,0.59
2022-11-23T14:17:52.402Z,0.49
2022-11-23T14:22:26.543Z,0.30
2022-11-23T14:26:41.561Z,0.37
2022-11-23T14:31:06.398Z,0.26
2022-11-23T14:35:08.101Z,0.32
2022-11-23T14:39:38.002Z,0.16
2022-11-23T14:43:42.683Z,0.16
2022-11-23T14:47:44.667Z,0.22
2022-11-23T14:51:47.017Z,0.20
2022-11-23T14:55:50.215Z,0.25
2022-11-23T14:59:56.114Z,0.40
2022-11-23T15:04:23.192Z,0.12
2022-11-23T15:08:32.081Z,0.38
2022-11-23T15:12:47.301Z,0.16
2022-11-23T15:16:49.568Z,0.23
2022-11-23T15:20:51.354Z,0.15
2022-11-23T15:24:54.074Z,0.23
2022-11-23T15:28:56.208Z,0.24
2022-11-23T15:33:08.861Z,0.15
2022-11-23T15:37:11.161Z,-0.03
2022-11-23T15:41:13.471Z,0.01
2022-11-23T15:45:37.429Z,0.02
2022-11-23T15:49:40.829Z,0.05
2022-11-23T15:53:49.643Z,0.03
2022-11-23T15:57:54.320Z,0.19
2022-11-23T16:01:56.549Z,0.15
2022-11-23T16:06:13.827Z,0.25
2022-11-23T16:10:22.537Z,0.04
2022-11-23T16:14:31.904Z,0.06
2022-11-23T16:18:34.253Z,0.14
2022-11-23T16:22:40.439Z,-0.05
2022-11-23T16:26:43.885Z,0.01
2022-11-23T16:30:48.567Z,-0.05
2022-11-23T16:34:50.881Z,-0.10
2022-11-23T16:38:52.751Z,-0.13
2022-11-23T16:42:54.413Z,-0.21
2022-11-23T16:47:19.873Z,-0.11
2022-11-23T16:51:21.523Z,-0.08
2022-11-23T16:55:23.563Z,-0.03
2022-11-23T16:59:25.909Z,-0.12
2022-11-23T17:03:28.229Z,-0.09
2022-11-23T17:07:30.242Z,-0.21
2022-11-23T17:11:32.299Z,-0.22
2022-11-23T17:15:33.876Z,-0.21
2022-11-23T17:19:36.008Z,-0.20
2022-11-23T17:23:42.703Z,-0.32
2022-11-23T17:27:46.357Z,-0.21
2022-11-23T17:31:49.485Z,-0.24
2022-11-23T17:35:56.234Z,-0.38
2022-11-23T17:39:57.955Z,-0.32
2022-11-23T17:44:00.282Z,-0.33
2022-11-23T17:48:03.689Z,-0.31
2022-11-23T17:52:06.151Z,-0.32
2022-11-23T17:56:16.973Z,-0.48
2022-11-23T18:00:21.580Z,-0.38
2022-11-23T18:04:23.672Z,-0.23
2022-11-23T18:08:25.713Z,-0.30
2022-11-23T18:12:27.583Z,-0.22
2022-11-23T18:16:29.760Z,-0.22
2022-11-23T18:20:31.580Z,-0.27
2022-11-23T18:24:33.718Z,-0.21
2022-11-23T18:28:35.688Z,-0.21
2022-11-23T18:32:37.787Z,-0.28
2022-11-23T18:36:39.648Z,-0.29
2022-11-23T18:40:41.814Z,-0.41
2022-11-23T18:44:43.485Z,-0.36
2022-11-23T18:48:47.133Z,-0.50
2022-11-23T18:52:48.832Z,-0.52
2022-11-23T18:56:50.882Z,-0.61
2022-11-23T19:00:52.804Z,-0.56
2022-11-23T19:04:54.852Z,-0.53
2022-11-23T19:08:57.483Z,-0.59
2022-11-23T19:13:05.189Z,-0.53
2022-11-23T19:17:07.423Z,-0.57
2022-11-23T19:21:16.684Z,-0.87
2022-11-23T19:25:19.359Z,-0.92
2022-11-23T19:29:24.810Z,-0.80
2022-11-23T19:33:29.238Z,-0.86
2022-11-23T19:37:31.377Z,-0.81
2022-11-23T19:41:33.301Z,-0.66
2022-11-23T19:45:35.563Z,-0.76
2022-11-23T19:49:37.464Z,-0.67
2022-11-23T19:53:40.632Z,-0.76
2022-11-23T19:57:42.312Z,-0.74
2022-11-23T20:01:44.595Z,-0.64
2022-11-23T20:05:56.379Z,-0.60
2022-11-23T20:09:58.454Z,-0.72
2022-11-23T20:14:01.555Z,-0.84
2022-11-23T20:18:03.969Z,-0.83
2022-11-23T20:22:05.721Z,-0.98
2022-11-23T20:26:09.101Z,-1.00
2022-11-23T20:30:11.357Z,-0.91
2022-11-23T20:34:19.830Z,-0.95
2022-11-23T20:38:23.125Z,-0.87
2022-11-23T20:42:25.199Z,-0.97
2022-11-23T20:46:59.866Z,-0.87
2022-11-23T20:50:51.340Z,-0.98
2022-11-23T20:54:53.419Z,-1.05
2022-11-23T20:58:57.234Z,-1.11
2022-11-23T21:02:59.172Z,-1.16
2022-11-23T21:07:01.635Z,-1.04
2022-11-23T21:11:26.081Z,-1.33
2022-11-23T21:15:28.571Z,-1.20
2022-11-23T21:19:32.922Z,-1.41
2022-11-23T21:23:36.204Z,-1.25
2022-11-23T21:27:38.166Z,-1.22
2022-11-23T21:31:42.751Z,-1.15
2022-11-23T21:35:44.567Z,-1.11
2022-11-23T21:39:52.723Z,-1.09
2022-11-23T21:43:54.877Z,-1.01
2022-11-23T21:47:57.050Z,-1.05
2022-11-23T21:51:59.119Z,-0.99
2022-11-23T21:56:05.694Z,-1.04
2022-11-23T22:00:08.369Z,-1.14
2022-11-23T22:04:15.814Z,-1.21
2022-11-23T22:08:33.100Z,-1.29
2022-11-23T22:12:35.073Z,-1.24
2022-11-23T22:16:41.422Z,-1.23
2022-11-23T22:20:43.713Z,-1.20
2022-11-23T22:24:45.291Z,-1.20
2022-11-23T22:28:51.287Z,-1.09
2022-11-23T22:32:53.034Z,-1.09
2022-11-23T22:36:55.313Z,-1.14
2022-11-23T22:40:57.171Z,-1.18
2022-11-23T22:44:59.384Z,-1.12
2022-11-23T22:49:01.895Z,-1.15
2022-11-23T22:53:04.108Z,-1.04
2022-11-23T22:57:05.889Z,-1.04
2022-11-23T23:01:13.734Z,-1.24
2022-11-23T23:05:15.501Z,-1.21
2022-11-23T23:09:17.794Z,-1.18
2022-11-23T23:13:20.195Z,-1.01
2022-11-23T23:17:22.434Z,-1.16
2022-11-23T23:21:25.397Z,-1.09
2022-11-23T23:25:27.601Z,-1.19
2022-11-23T23:29:29.744Z,-1.20
2022-11-23T23:33:33.375Z,-1.13
2022-11-23T23:37:35.165Z,-1.22
2022-11-23T23:41:37.220Z,-1.14
2022-11-23T23:45:38.903Z,-1.09
2022-11-23T23:49:40.888Z,-1.14
2022-11-23T23:53:43.685Z,-1.09
2022-11-23T23:57:45.656Z,-1.20
